createdAt,value
2022-09-26T00:00:10.609Z,76310.44
2022-09-26T00:02:36.994Z,76308.44
2022-09-26T00:05:03.497Z,76306.44
2022-09-26T00:07:29.853Z,76300.44
2022-09-26T00:09:56.214Z,76298.44
2022-09-26T00:12:22.611Z,76302.44
2022-09-26T00:14:48.914Z,76304.44
2022-09-26T00:17:15.255Z,76302.44
2022-09-26T00:19:41.572Z,76298.44
2022-09-26T00:22:07.953Z,76294.41
2022-09-26T00:24:34.563Z,76298.44
2022-09-26T00:27:00.919Z,76298.44
2022-09-26T00:29:27.289Z,76290.41
2022-09-26T00:31:53.706Z,76298.44
2022-09-26T00:34:20.399Z,76298.44
2022-09-26T00:36:46.910Z,76294.41
2022-09-26T00:39:14.569Z,76302.44
2022-09-26T00:41:41.055Z,76294.41
2022-09-26T00:44:26.125Z,76298.44
2022-09-26T00:46:52.592Z,76294.41
2022-09-26T00:49:25.372Z,76296.41
2022-09-26T00:51:55.511Z,76294.41
2022-09-26T00:54:22.187Z,76288.41
2022-09-26T00:56:50.741Z,76292.41
2022-09-26T00:59:17.095Z,76288.41
2022-09-26T01:01:43.553Z,76290.41
2022-09-26T01:04:10.690Z,76292.41
2022-09-26T01:06:37.051Z,76294.41
2022-09-26T01:09:09.829Z,76290.41
2022-09-26T01:11:37.328Z,76290.41
2022-09-26T01:14:04.799Z,76288.41
2022-09-26T01:16:31.811Z,76286.41
2022-09-26T01:18:58.817Z,76280.41
2022-09-26T01:21:44.055Z,76276.41
2022-09-26T01:24:28.705Z,76270.41
2022-09-26T01:27:07.671Z,76270.41
2022-09-26T01:29:53.007Z,76274.41
2022-09-26T01:32:38.200Z,76268.41
2022-09-26T01:35:10.441Z,76266.41
2022-09-26T01:37:42.977Z,76272.41
2022-09-26T01:40:16.339Z,76266.41
2022-09-26T01:42:42.775Z,76270.41
2022-09-26T01:45:12.307Z,76274.41
2022-09-26T01:47:51.887Z,76272.41
2022-09-26T01:50:27.535Z,76272.41
2022-09-26T01:52:53.838Z,76274.41
2022-09-26T01:55:26.464Z,76270.41
2022-09-26T01:57:56.316Z,76272.41
2022-09-26T02:00:22.766Z,76272.41
2022-09-26T02:02:49.930Z,76274.41
2022-09-26T02:05:20.681Z,76270.41
2022-09-26T02:07:59.307Z,76278.41
2022-09-26T02:10:28.969Z,76274.41
2022-09-26T02:12:59.784Z,76270.41
2022-09-26T02:15:27.345Z,76270.41
2022-09-26T02:17:57.212Z,76268.41
2022-09-26T02:20:26.944Z,76262.41
2022-09-26T02:22:53.391Z,76254.41
2022-09-26T02:25:19.764Z,76254.41
2022-09-26T02:27:46.147Z,76258.41
2022-09-26T02:30:13.192Z,76256.41
2022-09-26T02:32:40.124Z,76262.41
2022-09-26T02:35:25.190Z,76262.41
2022-09-26T02:37:51.543Z,76264.41
2022-09-26T02:40:19.333Z,76262.41
2022-09-26T02:42:55.133Z,76258.41
2022-09-26T02:45:29.036Z,76262.41
2022-09-26T02:48:20.402Z,76256.41
2022-09-26T02:50:48.120Z,76254.41
2022-09-26T02:53:26.832Z,76254.41
2022-09-26T02:56:09.382Z,76254.41
2022-09-26T02:58:54.551Z,76252.41
2022-09-26T03:01:27.344Z,76250.41
2022-09-26T03:03:59.891Z,76248.41
2022-09-26T03:06:30.044Z,76254.41
2022-09-26T03:08:57.000Z,76246.41
2022-09-26T03:11:24.951Z,76250.41
2022-09-26T03:13:53.369Z,76238.38
2022-09-26T03:16:20.858Z,76240.38
2022-09-26T03:18:54.167Z,76240.38
2022-09-26T03:21:20.983Z,76234.38
2022-09-26T03:23:47.952Z,76230.38
2022-09-26T03:26:17.422Z,76232.38
2022-09-26T03:28:44.549Z,76230.38
2022-09-26T03:31:11.399Z,76234.38
2022-09-26T03:33:37.723Z,76234.38
2022-09-26T03:36:06.470Z,76228.38
2022-09-26T03:38:32.879Z,76230.38
2022-09-26T03:40:59.322Z,76226.38
2022-09-26T03:43:26.022Z,76222.38
2022-09-26T03:45:52.521Z,76226.38
2022-09-26T03:48:18.852Z,76228.38
2022-09-26T03:50:45.603Z,76226.38
2022-09-26T03:53:12.009Z,76226.38
2022-09-26T03:55:38.458Z,76212.38
2022-09-26T03:58:05.135Z,76210.38
2022-09-26T04:00:31.691Z,76206.38
2022-09-26T04:02:59.828Z,76202.38
2022-09-26T04:05:26.962Z,76202.38
2022-09-26T04:07:53.428Z,76194.34
2022-09-26T04:10:19.766Z,76194.34
2022-09-26T04:12:46.116Z,76198.38
2022-09-26T04:15:12.427Z,76198.38
2022-09-26T04:17:38.756Z,76188.34
2022-09-26T04:20:05.295Z,76186.34
2022-09-26T04:22:31.603Z,76174.34
2022-09-26T04:24:57.944Z,76166.34
2022-09-26T04:27:28.830Z,76156.34
2022-09-26T04:29:57.259Z,76154.34
2022-09-26T04:32:24.517Z,76154.34
2022-09-26T04:34:50.943Z,76150.34
2022-09-26T04:37:17.264Z,76150.34
2022-09-26T04:39:43.798Z,76148.34
2022-09-26T04:42:10.104Z,76154.34
2022-09-26T04:44:36.453Z,76150.34
2022-09-26T04:47:02.793Z,76154.34
2022-09-26T04:49:29.816Z,76148.34
2022-09-26T04:51:56.184Z,76146.34
2022-09-26T04:54:24.087Z,76148.34
2022-09-26T04:56:50.467Z,76146.34
2022-09-26T04:59:16.845Z,76144.34
2022-09-26T05:01:43.257Z,76144.34
2022-09-26T05:04:10.108Z,76142.31
2022-09-26T05:06:36.475Z,76144.34
2022-09-26T05:09:04.235Z,76146.34
2022-09-26T05:11:32.967Z,76146.34
2022-09-26T05:13:59.349Z,76150.34
2022-09-26T05:16:28.185Z,76152.34
2022-09-26T05:18:56.953Z,76154.34
2022-09-26T05:21:23.307Z,76154.34
2022-09-26T05:24:08.383Z,76154.34
2022-09-26T05:26:37.582Z,76152.34
2022-09-26T05:29:08.708Z,76150.34
2022-09-26T05:31:37.516Z,76150.34
2022-09-26T05:34:05.005Z,76154.34
2022-09-26T05:36:31.507Z,76154.34
2022-09-26T05:38:57.891Z,76154.34
2022-09-26T05:41:27.107Z,76156.34
2022-09-26T05:43:53.810Z,76154.34
2022-09-26T05:46:20.231Z,76150.34
2022-09-26T05:48:46.570Z,76146.34
2022-09-26T05:51:14.408Z,76146.34
2022-09-26T05:53:41.594Z,76142.31
2022-09-26T05:56:08.610Z,76142.31
2022-09-26T05:58:36.200Z,76142.31
2022-09-26T06:01:02.636Z,76148.34
2022-09-26T06:03:34.520Z,76150.34
2022-09-26T06:06:01.815Z,76150.34
2022-09-26T06:08:28.182Z,76148.34
2022-09-26T06:10:58.208Z,76152.34
2022-09-26T06:13:25.334Z,76150.34
2022-09-26T06:15:52.656Z,76154.34
2022-09-26T06:18:19.069Z,76152.34
2022-09-26T06:20:45.415Z,76158.34
2022-09-26T06:23:11.780Z,76154.34
2022-09-26T06:25:38.138Z,76154.34
2022-09-26T06:28:04.499Z,76154.34
2022-09-26T06:30:31.060Z,76154.34
2022-09-26T06:32:57.927Z,76154.34
2022-09-26T06:35:24.279Z,76154.34
2022-09-26T06:37:50.652Z,76148.34
2022-09-26T06:40:17.183Z,76150.34
2022-09-26T06:42:43.540Z,76146.34
2022-09-26T06:45:10.577Z,76144.34
2022-09-26T06:47:36.987Z,76142.31
2022-09-26T06:50:04.130Z,76138.31
2022-09-26T06:52:34.034Z,76138.31
2022-09-26T06:55:03.734Z,76138.31
2022-09-26T06:57:37.121Z,76136.31
2022-09-26T07:00:04.156Z,76138.31
2022-09-26T07:02:30.505Z,76140.31
2022-09-26T07:04:56.881Z,76136.31
2022-09-26T07:07:23.568Z,76130.31
2022-09-26T07:09:50.300Z,76122.31
2022-09-26T07:12:16.929Z,76118.31
2022-09-26T07:14:43.443Z,76122.31
2022-09-26T07:17:14.256Z,76126.31
2022-09-26T07:19:40.600Z,76130.31
2022-09-26T07:22:07.429Z,76126.31
2022-09-26T07:24:35.006Z,76130.31
2022-09-26T07:27:02.097Z,76124.31
2022-09-26T07:29:28.792Z,76122.31
2022-09-26T07:31:55.330Z,76120.31
2022-09-26T07:34:25.154Z,76114.31
2022-09-26T07:36:52.095Z,76114.31
2022-09-26T07:39:18.544Z,76116.31
2022-09-26T07:41:46.133Z,76110.31
2022-09-26T07:45:09.270Z,76106.31
2022-09-26T07:47:18.059Z,76110.31
2022-09-26T07:50:02.968Z,76106.31
2022-09-26T07:52:29.427Z,76102.31
2022-09-26T07:54:55.795Z,76102.31
2022-09-26T07:57:22.305Z,76104.31
2022-09-26T07:59:50.481Z,76100.31
2022-09-26T08:02:24.700Z,76100.31
2022-09-26T08:04:58.780Z,76098.31
2022-09-26T08:07:27.411Z,76100.31
2022-09-26T08:09:54.212Z,76096.31
2022-09-26T08:12:20.701Z,76092.31
2022-09-26T08:14:48.509Z,76096.31
2022-09-26T08:17:16.214Z,76094.31
2022-09-26T08:19:43.708Z,76098.31
2022-09-26T08:22:10.382Z,76098.31
2022-09-26T08:24:37.263Z,76094.31
2022-09-26T08:27:03.748Z,76098.31
2022-09-26T08:29:34.340Z,76098.31
2022-09-26T08:32:03.319Z,76094.31
2022-09-26T08:34:32.087Z,76092.31
2022-09-26T08:36:58.665Z,76090.28
2022-09-26T08:39:25.881Z,76094.31
2022-09-26T08:41:59.689Z,76094.31
2022-09-26T08:44:30.192Z,76092.31
2022-09-26T08:47:07.298Z,76094.31
2022-09-26T08:49:39.880Z,76094.31
2022-09-26T08:52:26.521Z,76090.28
2022-09-26T08:54:54.698Z,76090.28
2022-09-26T08:57:39.522Z,76084.28
2022-09-26T09:00:10.040Z,76084.28
2022-09-26T09:02:44.362Z,76080.28
2022-09-26T09:05:43.666Z,76078.28
2022-09-26T09:08:12.988Z,76080.28
2022-09-26T09:10:42.412Z,76072.28
2022-09-26T09:13:28.459Z,76076.28
2022-09-26T09:16:13.673Z,76074.28
2022-09-26T09:18:40.058Z,76074.28
2022-09-26T09:21:25.392Z,76074.28
2022-09-26T09:24:08.600Z,76066.28
2022-09-26T09:29:50.631Z,76066.28
2022-09-26T09:32:29.015Z,76064.28
2022-09-26T09:34:55.937Z,76062.28
2022-09-26T09:37:25.651Z,76062.28
2022-09-26T09:39:53.058Z,76062.28
2022-09-26T09:42:23.850Z,76058.28
2022-09-26T09:45:05.407Z,76054.28
2022-09-26T09:47:36.249Z,76058.28
2022-09-26T09:50:12.177Z,76050.28
2022-09-26T09:52:47.661Z,76048.28
2022-09-26T09:55:27.664Z,76046.28
2022-09-26T09:57:54.072Z,76052.28
2022-09-26T10:00:22.520Z,76042.28
2022-09-26T10:03:02.245Z,76046.28
2022-09-26T10:05:35.823Z,76042.28
2022-09-26T10:08:04.540Z,76042.28
2022-09-26T10:10:39.762Z,76038.28
2022-09-26T10:13:07.830Z,76038.28
2022-09-26T10:15:36.391Z,76028.25
2022-09-26T10:18:24.217Z,76034.25
2022-09-26T10:20:54.002Z,76026.25
2022-09-26T10:23:27.065Z,76026.25
2022-09-26T10:26:00.131Z,76026.25
2022-09-26T10:28:28.275Z,76018.25
2022-09-26T10:30:56.085Z,76012.25
2022-09-26T10:33:24.751Z,76010.25
2022-09-26T10:35:53.953Z,76008.25
2022-09-26T10:38:23.402Z,76006.25
2022-09-26T10:40:53.297Z,76010.25
2022-09-26T10:43:22.592Z,76004.25
2022-09-26T10:45:54.884Z,76004.25
2022-09-26T10:48:28.183Z,75996.25
2022-09-26T10:51:00.518Z,76002.25
2022-09-26T10:53:31.176Z,76004.25
2022-09-26T10:56:01.513Z,76004.25
2022-09-26T10:58:29.815Z,76000.25
2022-09-26T11:00:57.778Z,75998.25
2022-09-26T11:03:38.198Z,75998.25
2022-09-26T11:06:04.697Z,75992.25
2022-09-26T11:08:32.169Z,75992.25
2022-09-26T11:11:00.180Z,75992.25
2022-09-26T11:13:28.551Z,75992.25
2022-09-26T11:16:08.778Z,75986.25
2022-09-26T11:18:46.351Z,75990.25
2022-09-26T11:21:31.578Z,75982.25
2022-09-26T11:23:57.980Z,75986.25
2022-09-26T11:26:45.035Z,75990.25
2022-09-26T11:29:17.945Z,75986.25
2022-09-26T11:31:45.848Z,75988.25
2022-09-26T11:34:17.731Z,75978.22
2022-09-26T11:36:56.615Z,75978.22
2022-09-26T11:39:23.176Z,75974.22
2022-09-26T11:41:55.513Z,75970.22
2022-09-26T11:44:31.398Z,75966.22
2022-09-26T11:47:30.182Z,75966.22
2022-09-26T11:50:15.257Z,75958.22
2022-09-26T11:52:49.565Z,75966.22
2022-09-26T11:55:31.008Z,75962.22
2022-09-26T11:57:57.485Z,75960.22
2022-09-26T12:00:26.599Z,75956.22
2022-09-26T12:02:57.582Z,75948.22
2022-09-26T12:05:33.323Z,75942.22
2022-09-26T12:08:12.255Z,75936.22
2022-09-26T12:11:01.980Z,75938.22
2022-09-26T12:13:48.338Z,75934.22
2022-09-26T12:16:41.093Z,75930.22
2022-09-26T12:19:16.707Z,75928.22
2022-09-26T12:22:05.953Z,75926.22
2022-09-26T12:24:39.364Z,75924.19
2022-09-26T12:27:12.440Z,75918.19
2022-09-26T12:29:38.896Z,75920.19
2022-09-26T12:32:17.478Z,75922.19
2022-09-26T12:34:46.854Z,75918.19
2022-09-26T12:37:33.950Z,75918.19
2022-09-26T12:40:19.019Z,75922.19
2022-09-26T12:43:04.814Z,75918.19
2022-09-26T12:45:42.540Z,75914.19
2022-09-26T12:48:29.771Z,75914.19
2022-09-26T12:51:16.187Z,75914.19
2022-09-26T12:53:48.478Z,75904.19
2022-09-26T12:56:33.842Z,75910.19
2022-09-26T12:59:06.841Z,75906.19
2022-09-26T13:01:43.604Z,75902.19
2022-09-26T13:04:33.365Z,75902.19
2022-09-26T13:07:18.974Z,75894.19
2022-09-26T13:09:57.368Z,75892.19
2022-09-26T13:12:40.872Z,75890.19
2022-09-26T13:15:07.418Z,75890.19
2022-09-26T13:17:35.927Z,75888.19
2022-09-26T13:20:14.543Z,75882.19
2022-09-26T13:22:47.573Z,75886.19
2022-09-26T13:25:20.744Z,75886.19
2022-09-26T13:27:55.741Z,75882.19
2022-09-26T13:30:25.250Z,75878.19
2022-09-26T13:33:07.062Z,75880.19
2022-09-26T13:35:35.732Z,75878.19
2022-09-26T13:38:20.977Z,75870.19
2022-09-26T13:40:53.353Z,75870.19
2022-09-26T13:43:34.850Z,75870.19
2022-09-26T13:46:07.577Z,75860.16
2022-09-26T13:48:42.899Z,75858.16
2022-09-26T13:51:18.450Z,75862.16
2022-09-26T13:53:54.684Z,75854.16
2022-09-26T13:56:31.211Z,75858.16
2022-09-26T13:59:13.416Z,75858.16
2022-09-26T14:01:59.743Z,75852.16
2022-09-26T14:04:33.702Z,75850.16
2022-09-26T14:07:29.234Z,75846.16
2022-09-26T14:09:59.031Z,75846.16
2022-09-26T14:12:51.203Z,75842.16
2022-09-26T14:15:28.834Z,75838.16
2022-09-26T14:17:55.212Z,75834.16
2022-09-26T14:20:27.320Z,75834.16
2022-09-26T14:22:57.305Z,75830.16
2022-09-26T14:25:42.469Z,75830.16
2022-09-26T14:28:09.999Z,75830.16
2022-09-26T14:30:37.472Z,75828.16
2022-09-26T14:33:09.210Z,75824.16
2022-09-26T14:35:38.708Z,75822.16
2022-09-26T14:38:09.902Z,75822.16
2022-09-26T14:40:37.917Z,75820.16
2022-09-26T14:43:10.385Z,75818.16
2022-09-26T14:45:36.745Z,75810.16
2022-09-26T14:48:08.011Z,75808.16
2022-09-26T14:50:44.270Z,75808.16
2022-09-26T14:53:19.987Z,75800.13
2022-09-26T14:55:59.219Z,75798.13
2022-09-26T14:58:37.755Z,75794.13
2022-09-26T15:01:15.121Z,75794.13
2022-09-26T15:03:41.669Z,75796.13
2022-09-26T15:06:11.838Z,75794.13
2022-09-26T15:08:39.375Z,75792.13
2022-09-26T15:11:06.816Z,75786.13
2022-09-26T15:13:36.255Z,75790.13
2022-09-26T15:16:15.847Z,75786.13
2022-09-26T15:18:45.288Z,75790.13
2022-09-26T15:21:32.992Z,75790.13
2022-09-26T15:23:59.780Z,75790.13
2022-09-26T15:26:27.803Z,75794.13
2022-09-26T15:28:56.555Z,75790.13
2022-09-26T15:31:23.027Z,75790.13
2022-09-26T15:33:55.821Z,75788.13
2022-09-26T15:36:22.412Z,75786.13
2022-09-26T15:38:49.303Z,75782.13
2022-09-26T15:41:37.031Z,75780.13
2022-09-26T15:44:05.962Z,75774.13
2022-09-26T15:46:32.730Z,75776.13
2022-09-26T15:49:00.358Z,75772.13
2022-09-26T15:51:37.578Z,75766.13
2022-09-26T15:54:10.859Z,75766.13
2022-09-26T15:56:37.248Z,75766.13
2022-09-26T15:59:12.808Z,75766.13
2022-09-26T16:01:44.349Z,75764.13
2022-09-26T16:04:21.365Z,75764.13
2022-09-26T16:06:54.022Z,75750.13
2022-09-26T16:09:23.248Z,75746.13
2022-09-26T16:11:58.240Z,75738.13
2022-09-26T16:14:30.772Z,75736.13
2022-09-26T16:17:01.944Z,75734.09
2022-09-26T16:19:35.176Z,75724.09
2022-09-26T16:22:24.852Z,75730.09
2022-09-26T16:24:51.649Z,75730.09
2022-09-26T16:27:25.709Z,75726.09
2022-09-26T16:29:52.635Z,75728.09
2022-09-26T16:32:20.982Z,75726.09
2022-09-26T16:34:48.865Z,75732.09
2022-09-26T16:37:18.795Z,75726.09
2022-09-26T16:39:54.373Z,75734.09
2022-09-26T16:42:23.315Z,75736.13
2022-09-26T16:44:51.806Z,75734.09
2022-09-26T16:47:44.421Z,75734.09
2022-09-26T16:50:26.619Z,75728.09
2022-09-26T16:52:53.278Z,75730.09
2022-09-26T16:55:20.185Z,75732.09
2022-09-26T16:57:46.535Z,75734.09
2022-09-26T17:00:39.229Z,75734.09
2022-09-26T17:03:24.760Z,75730.09
2022-09-26T17:05:51.926Z,75726.09
2022-09-26T17:08:18.696Z,75730.09
2022-09-26T17:10:46.163Z,75726.09
2022-09-26T17:13:16.396Z,75730.09
2022-09-26T17:15:45.069Z,75726.09
2022-09-26T17:18:12.141Z,75728.09
2022-09-26T17:20:42.827Z,75722.09
2022-09-26T17:23:34.874Z,75726.09
2022-09-26T17:25:57.832Z,75724.09
2022-09-26T17:28:36.687Z,75730.09
2022-09-26T17:31:07.281Z,75728.09
2022-09-26T17:33:36.583Z,75730.09
2022-09-26T17:36:03.305Z,75724.09
2022-09-26T17:38:30.385Z,75728.09
2022-09-26T17:40:56.969Z,75724.09
2022-09-26T17:43:23.430Z,75726.09
2022-09-26T17:45:51.809Z,75732.09
2022-09-26T17:48:25.722Z,75730.09
2022-09-26T17:50:53.023Z,75730.09
2022-09-26T17:53:20.863Z,75726.09
2022-09-26T17:55:48.076Z,75722.09
2022-09-26T17:58:14.652Z,75722.09
2022-09-26T18:00:43.128Z,75720.09
2022-09-26T18:03:18.837Z,75718.09
2022-09-26T18:05:46.177Z,75716.09
2022-09-26T18:08:32.566Z,75718.09
2022-09-26T18:11:00.764Z,75722.09
2022-09-26T18:13:31.444Z,75722.09
2022-09-26T18:15:58.909Z,75718.09
2022-09-26T18:18:27.903Z,75722.09
2022-09-26T18:20:55.240Z,75714.09
2022-09-26T18:23:23.442Z,75716.09
2022-09-26T18:25:51.057Z,75710.09
2022-09-26T18:28:20.478Z,75710.09
2022-09-26T18:30:48.293Z,75714.09
2022-09-26T18:33:15.315Z,75710.09
2022-09-26T18:35:43.113Z,75716.09
2022-09-26T18:38:09.614Z,75714.09
2022-09-26T18:40:40.172Z,75714.09
2022-09-26T18:43:07.455Z,75718.09
2022-09-26T18:45:38.028Z,75716.09
2022-09-26T18:48:05.919Z,75714.09
2022-09-26T18:50:36.730Z,75714.09
2022-09-26T18:53:13.772Z,75710.09
2022-09-26T18:55:58.871Z,75710.09
2022-09-26T18:58:26.697Z,75710.09
2022-09-26T19:00:56.702Z,75710.09
2022-09-26T19:03:23.672Z,75710.09
2022-09-26T19:05:50.648Z,75714.09
2022-09-26T19:08:28.435Z,75710.09
2022-09-26T19:10:55.041Z,75706.09
2022-09-26T19:13:26.688Z,75710.09
2022-09-26T19:15:53.935Z,75708.09
2022-09-26T19:18:20.350Z,75706.09
2022-09-26T19:20:46.762Z,75706.09
2022-09-26T19:23:14.047Z,75698.09
2022-09-26T19:25:40.859Z,75698.09
2022-09-26T19:28:11.804Z,75702.09
2022-09-26T19:30:38.215Z,75702.09
2022-09-26T19:33:04.594Z,75702.09
2022-09-26T19:35:33.789Z,75700.09
2022-09-26T19:38:00.798Z,75696.09
2022-09-26T19:40:27.826Z,75690.09
2022-09-26T19:42:55.186Z,75690.09
2022-09-26T19:45:22.176Z,75680.09
2022-09-26T19:47:51.172Z,75688.09
2022-09-26T19:50:18.866Z,75682.09
2022-09-26T19:52:45.442Z,75686.09
2022-09-26T19:55:13.935Z,75688.09
2022-09-26T19:57:40.329Z,75688.09
2022-09-26T20:00:07.179Z,75686.09
2022-09-26T20:02:35.557Z,75688.09
2022-09-26T20:05:02.135Z,75682.09
2022-09-26T20:07:28.431Z,75686.09
2022-09-26T20:09:55.035Z,75696.09
2022-09-26T20:12:21.342Z,75690.09
2022-09-26T20:14:47.729Z,75690.09
2022-09-26T20:17:24.708Z,75686.09
2022-09-26T20:19:55.162Z,75682.09
2022-09-26T20:22:24.498Z,75682.09
2022-09-26T20:24:57.636Z,75682.09
2022-09-26T20:27:28.255Z,75676.09
2022-09-26T20:30:13.605Z,75670.06
2022-09-26T20:32:41.383Z,75670.06
2022-09-26T20:35:10.063Z,75670.06
2022-09-26T20:37:39.852Z,75670.06
2022-09-26T20:40:12.430Z,75672.09
2022-09-26T20:42:40.251Z,75666.06
2022-09-26T20:45:10.291Z,75664.06
2022-09-26T20:47:37.430Z,75662.06
2022-09-26T20:50:04.116Z,75662.06
2022-09-26T20:52:30.696Z,75654.06
2022-09-26T20:54:57.424Z,75658.06
2022-09-26T20:57:23.998Z,75652.06
2022-09-26T20:59:50.739Z,75646.06
2022-09-26T21:02:25.433Z,75634.06
2022-09-26T21:04:52.156Z,75622.06
2022-09-26T21:07:18.868Z,75618.06
2022-09-26T21:09:45.348Z,75606.06
2022-09-26T21:12:12.688Z,75598.03
2022-09-26T21:14:39.051Z,75594.03
2022-09-26T21:17:05.541Z,75590.03
2022-09-26T21:19:32.731Z,75586.03
2022-09-26T21:21:59.119Z,75578.03
2022-09-26T21:24:30.378Z,75576.03
2022-09-26T21:26:56.872Z,75578.03
2022-09-26T21:29:23.229Z,75572.03
2022-09-26T21:31:51.322Z,75574.03
2022-09-26T21:34:22.354Z,75570.03
2022-09-26T21:36:49.372Z,75572.03
2022-09-26T21:39:16.954Z,75570.03
2022-09-26T21:41:43.704Z,75574.03
2022-09-26T21:44:31.013Z,75570.03
2022-09-26T21:46:57.383Z,75574.03
2022-09-26T21:49:24.521Z,75570.03
2022-09-26T21:51:54.645Z,75562.03
2022-09-26T21:54:24.997Z,75568.03
2022-09-26T21:56:54.660Z,75574.03
2022-09-26T21:59:22.786Z,75568.03
2022-09-26T22:01:49.447Z,75566.03
2022-09-26T22:04:15.846Z,75566.03
2022-09-26T22:06:42.529Z,75570.03
2022-09-26T22:09:09.060Z,75566.03
2022-09-26T22:11:36.418Z,75562.03
2022-09-26T22:14:03.514Z,75562.03
2022-09-26T22:16:29.966Z,75558.03
2022-09-26T22:18:56.356Z,75556.03
2022-09-26T22:21:22.672Z,75550.03
2022-09-26T22:23:50.356Z,75550.03
2022-09-26T22:26:17.451Z,75548.03
2022-09-26T22:28:45.003Z,75542.03
2022-09-26T22:31:12.049Z,75546.03
2022-09-26T22:33:38.500Z,75542.03
2022-09-26T22:36:05.275Z,75542.03
2022-09-26T22:38:32.917Z,75544.03
2022-09-26T22:41:00.517Z,75540.03
2022-09-26T22:43:27.591Z,75544.03
2022-09-26T22:45:59.916Z,75538.03
2022-09-26T22:48:29.205Z,75538.03
2022-09-26T22:50:55.575Z,75534.03
2022-09-26T22:53:21.919Z,75534.03
2022-09-26T22:55:52.344Z,75534.03
2022-09-26T22:58:18.705Z,75534.03
2022-09-26T23:00:45.180Z,75530.00
2022-09-26T23:03:11.528Z,75530.00
2022-09-26T23:05:39.647Z,75526.00
2022-09-26T23:08:06.215Z,75522.00
2022-09-26T23:10:32.599Z,75522.00
2022-09-26T23:12:58.974Z,75518.00
2022-09-26T23:15:25.337Z,75518.00
2022-09-26T23:17:51.682Z,75510.00
2022-09-26T23:20:18.072Z,75510.00
2022-09-26T23:22:44.435Z,75510.00
2022-09-26T23:25:12.827Z,75510.00
2022-09-26T23:27:39.179Z,75512.00
2022-09-26T23:30:05.988Z,75508.00
2022-09-26T23:32:32.352Z,75508.00
2022-09-26T23:34:58.701Z,75504.00
2022-09-26T23:37:25.051Z,75502.00
2022-09-26T23:39:51.956Z,75496.00
2022-09-26T23:42:18.295Z,75504.00
2022-09-26T23:44:44.644Z,75498.00
2022-09-26T23:47:11.051Z,75504.00
2022-09-26T23:49:37.422Z,75498.00
2022-09-26T23:52:03.899Z,75494.00
2022-09-26T23:54:30.299Z,75496.00
2022-09-26T23:56:56.686Z,75490.00
2022-09-26T23:59:23.057Z,75494.00
